Time;durP1;ratioP1;P1;durP2;ratioP2;P2;SDS_P1;SDS_P2;PMS_P1;PMS_P2;Temp;Humidity;BMP_temperature;BMP_pressure;BME280_temperature;BME280_humidity;BME280_pressure;Samples;Min_cycle;Max_cycle;Signal;HPM_P1;HPM_P2
2022/07/31 00:00:22;;;;;;;2.28;1.30;;;18.70;99.90;;;;;;5074669;28;20485;-61
2022/07/31 00:02:48;;;;;;;1.88;1.27;;;18.70;99.90;;;;;;5073367;28;20037;-62
2022/07/31 00:05:14;;;;;;;2.55;1.45;;;18.70;99.90;;;;;;5074518;28;20047;-61
2022/07/31 00:07:39;;;;;;;2.58;1.27;;;18.70;99.90;;;;;;5074542;28;20076;-61
2022/07/31 00:10:06;;;;;;;1.60;1.20;;;18.70;99.90;;;;;;5073274;28;20040;-61
2022/07/31 00:12:33;;;;;;;2.53;1.00;;;18.70;99.90;;;;;;5073474;28;20048;-61
2022/07/31 00:15:00;;;;;;;3.30;1.50;;;18.70;99.90;;;;;;5074218;28;20052;-61
2022/07/31 00:17:26;;;;;;;2.38;1.05;;;18.60;99.90;;;;;;5074517;28;20123;-61
2022/07/31 00:19:52;;;;;;;1.55;1.27;;;18.70;99.90;;;;;;5074556;28;20064;-62
2022/07/31 00:22:18;;;;;;;1.75;1.17;;;18.70;99.90;;;;;;5074549;28;20079;-61
2022/07/31 00:24:43;;;;;;;1.85;1.20;;;18.70;99.90;;;;;;5073252;28;20446;-61
2022/07/31 00:27:09;;;;;;;1.65;1.05;;;18.70;99.90;;;;;;5072781;28;20040;-62
2022/07/31 00:29:36;;;;;;;1.80;1.35;;;18.70;99.90;;;;;;5074086;28;20044;-61
2022/07/31 00:32:01;;;;;;;2.63;1.23;;;18.70;99.90;;;;;;5072919;28;20055;-61
2022/07/31 00:34:27;;;;;;;1.73;1.02;;;18.70;99.90;;;;;;5073649;28;20048;-61
2022/07/31 00:36:53;;;;;;;2.10;1.30;;;18.70;99.90;;;;;;5074160;28;20089;-61
2022/07/31 00:39:18;;;;;;;1.90;1.20;;;18.70;99.90;;;;;;5073850;28;20047;-62
2022/07/31 00:41:45;;;;;;;1.42;1.15;;;18.70;99.90;;;;;;5074099;28;20033;-61
2022/07/31 00:44:11;;;;;;;3.13;1.30;;;18.70;99.90;;;;;;5072778;28;20044;-62
2022/07/31 00:46:37;;;;;;;2.08;1.13;;;18.60;99.90;;;;;;5072454;28;20185;-62
2022/07/31 00:49:03;;;;;;;2.03;1.30;;;18.60;99.90;;;;;;5073904;28;20523;-61
2022/07/31 00:51:29;;;;;;;2.83;1.30;;;18.60;99.90;;;;;;5073608;28;20090;-61
2022/07/31 00:53:54;;;;;;;2.05;1.27;;;18.60;99.90;;;;;;5073781;28;20076;-61
2022/07/31 00:56:20;;;;;;;1.63;1.05;;;18.60;99.90;;;;;;5073461;28;20506;-61
2022/07/31 00:58:46;;;;;;;1.67;0.90;;;18.60;99.90;;;;;;5073732;28;20392;-61
2022/07/31 01:01:12;;;;;;;1.77;1.02;;;18.60;99.90;;;;;;5073775;28;20040;-61
2022/07/31 01:03:37;;;;;;;1.52;1.08;;;18.50;99.90;;;;;;5072169;28;20123;-62
2022/07/31 01:06:03;;;;;;;2.42;1.15;;;18.50;99.90;;;;;;5073361;28;20052;-62
2022/07/31 01:08:29;;;;;;;1.35;1.08;;;18.40;99.90;;;;;;5073261;28;20044;-61
2022/07/31 01:11:05;;;;;;;1.50;1.00;;;18.40;99.90;;;;;;5073648;28;20037;-61
2022/07/31 01:13:58;;;;;;;1.00;0.90;;;18.30;99.90;;;;;;5073268;28;20061;-61
2022/07/31 01:16:27;;;;;;;1.10;0.90;;;18.20;99.90;;;;;;5073527;28;20067;-62
2022/07/31 01:18:55;;;;;;;1.48;0.93;;;18.20;99.90;;;;;;5073436;28;20133;-62
2022/07/31 01:21:48;;;;;;;1.13;0.80;;;18.10;99.90;;;;;;5073124;28;20396;-61
2022/07/31 01:24:25;;;;;;;4.63;1.52;;;18.10;99.90;;;;;;5072105;28;20046;-61
2022/07/31 01:27:02;;;;;;;1.48;1.08;;;18.10;99.90;;;;;;5073372;28;20041;-61
2022/07/31 01:29:43;;;;;;;1.83;1.10;;;18.00;99.90;;;;;;5072452;28;20055;-61
2022/07/31 01:32:24;;;;;;;1.08;0.90;;;18.00;99.90;;;;;;5073269;28;20052;-61
2022/07/31 01:35:14;;;;;;;2.28;0.90;;;18.00;99.90;;;;;;5071608;28;20122;-61
2022/07/31 01:37:46;;;;;;;0.95;0.93;;;17.90;99.90;;;;;;5072917;28;20091;-61
2022/07/31 01:40:15;;;;;;;0.95;0.80;;;17.90;99.90;;;;;;5072863;28;20040;-61
2022/07/31 01:42:49;;;;;;;3.55;0.98;;;17.90;99.90;;;;;;5072819;28;20162;-62
2022/07/31 01:45:18;;;;;;;1.45;1.23;;;17.90;99.90;;;;;;5072263;28;20059;-61
2022/07/31 01:47:45;;;;;;;3.80;1.23;;;17.90;99.90;;;;;;5073117;28;20484;-62
2022/07/31 01:50:12;;;;;;;1.55;1.30;;;17.90;99.90;;;;;;5073073;28;20490;-62
2022/07/31 01:52:39;;;;;;;3.17;1.30;;;17.90;99.90;;;;;;5073000;28;20068;-62
2022/07/31 01:55:06;;;;;;;1.25;1.00;;;17.90;99.90;;;;;;5072957;28;20047;-61
2022/07/31 01:57:33;;;;;;;3.45;1.50;;;17.90;99.90;;;;;;5072720;28;20064;-61
2022/07/31 02:00:04;;;;;;;2.22;1.13;;;17.90;99.90;;;;;;5071714;28;20052;-61
2022/07/31 02:02:31;;;;;;;1.83;1.20;;;17.90;99.90;;;;;;5073011;28;20032;-61
2022/07/31 02:04:58;;;;;;;1.30;1.20;;;17.90;99.90;;;;;;5071767;28;20503;-61
2022/07/31 02:07:25;;;;;;;1.23;0.88;;;17.90;99.90;;;;;;5105182;28;20067;-61
2022/07/31 02:09:52;;;;;;;0.95;0.88;;;17.90;99.90;;;;;;5072935;28;20143;-61
2022/07/31 02:12:18;;;;;;;2.10;1.08;;;17.90;99.90;;;;;;5072898;28;20438;-61
2022/07/31 02:14:45;;;;;;;1.20;0.80;;;18.00;99.90;;;;;;5071188;28;20053;-61
2022/07/31 02:17:12;;;;;;;1.73;1.10;;;18.00;99.90;;;;;;5072929;28;20511;-62
2022/07/31 02:19:40;;;;;;;2.17;1.27;;;18.00;99.90;;;;;;5072455;28;20090;-62
2022/07/31 02:22:06;;;;;;;1.40;1.00;;;18.00;99.90;;;;;;5072786;28;20043;-61
2022/07/31 02:24:33;;;;;;;3.55;1.15;;;18.00;99.90;;;;;;5071438;28;20456;-61
2022/07/31 02:26:59;;;;;;;2.05;1.10;;;18.00;99.90;;;;;;5072689;28;20127;-61
2022/07/31 02:29:29;;;;;;;1.70;1.00;;;18.00;99.90;;;;;;5072668;28;20447;-61
2022/07/31 02:31:57;;;;;;;0.95;0.88;;;18.00;99.90;;;;;;5071201;28;20101;-61
2022/07/31 02:34:23;;;;;;;1.58;0.90;;;18.00;99.90;;;;;;5072579;28;20041;-61
2022/07/31 02:36:52;;;;;;;2.58;1.35;;;17.90;99.90;;;;;;5072610;28;20040;-62
2022/07/31 02:39:19;;;;;;;1.33;1.02;;;17.90;99.90;;;;;;5072181;28;20127;-61
2022/07/31 02:41:46;;;;;;;3.97;1.02;;;17.90;99.90;;;;;;5072669;28;20037;-61
2022/07/31 02:44:14;;;;;;;2.17;1.30;;;17.90;99.90;;;;;;5072578;28;20040;-61
2022/07/31 02:46:42;;;;;;;1.58;1.00;;;17.90;99.90;;;;;;5072515;28;20045;-62
2022/07/31 02:49:08;;;;;;;1.13;0.90;;;17.90;99.90;;;;;;5072573;28;20106;-61
2022/07/31 02:51:34;;;;;;;1.42;1.00;;;17.90;99.90;;;;;;5072233;28;20124;-62
2022/07/31 02:54:00;;;;;;;1.30;1.20;;;17.90;99.90;;;;;;5072679;28;20480;-61
2022/07/31 02:56:29;;;;;;;1.15;1.00;;;17.90;99.90;;;;;;5073874;28;20115;-61
2022/07/31 02:58:54;;;;;;;1.13;0.88;;;17.90;99.90;;;;;;5076108;28;20454;-61
2022/07/31 03:01:20;;;;;;;1.30;1.00;;;17.90;99.90;;;;;;5075969;28;20028;-61
2022/07/31 03:03:46;;;;;;;1.67;1.25;;;17.90;99.90;;;;;;5075848;28;20032;-61
2022/07/31 03:06:12;;;;;;;1.55;1.20;;;17.90;99.90;;;;;;5075918;28;20064;-62
2022/07/31 03:08:38;;;;;;;1.55;1.15;;;17.90;99.90;;;;;;5057814;28;20105;-63
2022/07/31 03:11:04;;;;;;;3.15;1.52;;;17.90;99.90;;;;;;5075573;28;20044;-61
2022/07/31 03:13:32;;;;;;;1.60;1.30;;;17.90;99.90;;;;;;5075591;28;20056;-61
2022/07/31 03:15:59;;;;;;;2.00;1.23;;;17.90;99.90;;;;;;5074246;28;20052;-61
2022/07/31 03:18:25;;;;;;;1.77;1.33;;;17.90;99.90;;;;;;5075832;28;20083;-61
2022/07/31 03:20:51;;;;;;;2.72;1.25;;;17.90;99.90;;;;;;5075713;28;20036;-62
2022/07/31 03:23:20;;;;;;;2.65;1.40;;;17.90;99.90;;;;;;5075717;28;20435;-62
2022/07/31 03:25:50;;;;;;;2.28;1.38;;;17.90;99.90;;;;;;5075609;28;20045;-61
2022/07/31 03:28:20;;;;;;;1.40;1.00;;;17.90;99.90;;;;;;5075261;28;20040;-61
2022/07/31 03:30:49;;;;;;;1.40;1.20;;;17.80;99.90;;;;;;5075129;28;20093;-61
2022/07/31 03:33:15;;;;;;;1.73;1.08;;;17.90;99.90;;;;;;5075484;28;20107;-62
2022/07/31 03:35:40;;;;;;;3.40;1.30;;;17.80;99.90;;;;;;5075331;28;20048;-62
2022/07/31 03:38:06;;;;;;;2.10;1.17;;;17.80;99.90;;;;;;5075114;28;20036;-61
2022/07/31 03:40:32;;;;;;;1.10;1.00;;;17.90;99.90;;;;;;5075337;28;20446;-61
2022/07/31 03:43:00;;;;;;;4.43;1.38;;;17.80;99.90;;;;;;5075380;28;20234;-61
2022/07/31 03:45:26;;;;;;;4.50;1.38;;;17.80;99.90;;;;;;5074946;28;20119;-62
2022/07/31 03:47:53;;;;;;;2.72;1.50;;;17.90;99.90;;;;;;5074906;28;20040;-61
2022/07/31 03:50:19;;;;;;;1.73;1.25;;;17.80;99.90;;;;;;5075183;28;20047;-61
2022/07/31 03:52:46;;;;;;;1.25;1.08;;;17.80;99.90;;;;;;5075149;28;20082;-61
2022/07/31 03:55:12;;;;;;;1.65;1.20;;;17.80;99.90;;;;;;5074976;28;20477;-62
2022/07/31 03:57:37;;;;;;;1.98;1.20;;;17.80;99.90;;;;;;5073558;28;20048;-61
2022/07/31 04:00:05;;;;;;;4.28;1.40;;;17.80;99.90;;;;;;5074948;28;20388;-61
2022/07/31 04:02:30;;;;;;;1.73;1.23;;;17.70;99.90;;;;;;5074817;28;20446;-61
2022/07/31 04:04:56;;;;;;;2.90;1.42;;;17.70;99.90;;;;;;5074711;28;20040;-61
2022/07/31 04:07:23;;;;;;;1.92;1.45;;;17.70;99.90;;;;;;5073949;28;20040;-62
2022/07/31 04:09:49;;;;;;;1.60;1.05;;;17.70;99.90;;;;;;5074803;28;20446;-63
2022/07/31 04:12:15;;;;;;;1.67;1.20;;;17.70;99.90;;;;;;5073335;28;20044;-61
2022/07/31 04:14:41;;;;;;;1.40;1.00;;;17.70;99.90;;;;;;5074260;28;20106;-61
2022/07/31 04:17:07;;;;;;;1.90;1.40;;;17.60;99.90;;;;;;5074433;28;20447;-61
2022/07/31 04:19:32;;;;;;;1.50;1.33;;;17.60;99.90;;;;;;5074656;28;20044;-61
2022/07/31 04:21:59;;;;;;;1.48;1.20;;;17.60;99.90;;;;;;5074587;28;20047;-61
2022/07/31 04:24:25;;;;;;;1.58;1.10;;;17.60;99.90;;;;;;5074483;28;20040;-61
2022/07/31 04:26:53;;;;;;;1.90;1.30;;;17.60;99.90;;;;;;5074438;28;20381;-61
2022/07/31 04:29:18;;;;;;;2.42;1.50;;;17.60;99.90;;;;;;5074413;28;20040;-62
2022/07/31 04:31:44;;;;;;;1.42;1.10;;;17.70;99.90;;;;;;5073165;28;20541;-62
2022/07/31 04:34:10;;;;;;;1.98;1.23;;;17.70;99.90;;;;;;5074205;28;20036;-62
2022/07/31 04:36:36;;;;;;;1.77;1.15;;;17.80;99.90;;;;;;5074339;28;20043;-62
2022/07/31 04:39:02;;;;;;;3.30;1.27;;;17.80;99.90;;;;;;5072727;28;20446;-61
2022/07/31 04:41:28;;;;;;;2.33;1.35;;;17.80;99.90;;;;;;5074208;28;20044;-61
2022/07/31 04:43:56;;;;;;;1.25;1.15;;;17.90;99.90;;;;;;5074119;28;20064;-61
2022/07/31 04:46:22;;;;;;;2.55;1.20;;;17.90;99.90;;;;;;5073757;28;20051;-61
2022/07/31 04:48:48;;;;;;;1.63;1.30;;;18.00;99.90;;;;;;5073985;28;20032;-61
2022/07/31 04:51:21;;;;;;;2.05;1.27;;;18.00;99.90;;;;;;5073579;28;20044;-61
2022/07/31 04:53:48;;;;;;;1.73;1.38;;;18.00;99.90;;;;;;5073916;28;20476;-62
2022/07/31 04:59:08;;;;;;;2.63;1.65;;;18.20;99.90;;;;;;5073780;28;20134;-62
2022/07/31 05:01:34;;;;;;;1.83;1.52;;;18.20;99.90;;;;;;5073772;28;20106;-61
2022/07/31 05:04:00;;;;;;;1.80;1.35;;;18.30;99.90;;;;;;5073512;28;20146;-61
2022/07/31 05:06:44;;;;;;;6.60;1.67;;;18.30;99.90;;;;;;5072066;28;20135;-62
2022/07/31 05:09:15;;;;;;;2.92;1.60;;;18.30;99.90;;;;;;5073671;28;20033;-62
2022/07/31 05:11:42;;;;;;;;;;;18.30;99.90;;;;;;5056048;28;20040;-61
2022/07/31 05:14:10;;;;;;;3.47;1.73;;;18.30;99.90;;;;;;5073165;28;19921;-62
2022/07/31 05:16:36;;;;;;;2.25;1.30;;;18.30;99.90;;;;;;5072340;28;20036;-62
2022/07/31 05:19:03;;;;;;;1.77;1.55;;;18.30;99.90;;;;;;5071703;28;20036;-61
2022/07/31 05:21:32;;;;;;;1.98;1.38;;;18.30;99.90;;;;;;5073307;28;20076;-62
2022/07/31 05:23:59;;;;;;;3.45;1.67;;;18.30;99.90;;;;;;5073411;28;20040;-61
2022/07/31 05:26:26;;;;;;;4.22;1.92;;;18.30;99.90;;;;;;5073332;28;20029;-61
2022/07/31 05:28:53;;;;;;;3.45;1.70;;;18.30;99.90;;;;;;5072958;28;20040;-61
2022/07/31 05:31:19;;;;;;;2.35;1.70;;;18.30;99.90;;;;;;5073253;28;20472;-62
2022/07/31 05:33:47;;;;;;;2.28;1.65;;;18.40;99.90;;;;;;5071729;28;20093;-60
2022/07/31 05:36:14;;;;;;;1.92;1.55;;;18.40;99.90;;;;;;5071558;28;20040;-61
2022/07/31 05:38:40;;;;;;;3.63;1.63;;;18.50;99.90;;;;;;5071930;28;20483;-61
2022/07/31 05:41:06;;;;;;;3.08;1.77;;;18.50;99.90;;;;;;5071663;28;20036;-61
2022/07/31 05:43:32;;;;;;;3.50;1.70;;;18.50;99.90;;;;;;5073141;28;20043;-61
2022/07/31 05:45:58;;;;;;;2.05;1.60;;;18.50;99.90;;;;;;5073155;28;20392;-61
2022/07/31 05:48:24;;;;;;;1.92;1.30;;;18.50;99.90;;;;;;5072694;28;20048;-61
2022/07/31 05:50:50;;;;;;;3.22;2.17;;;18.50;99.90;;;;;;5073089;28;20051;-61
2022/07/31 05:53:17;;;;;;;2.42;1.63;;;18.50;99.90;;;;;;5071591;28;20057;-61
2022/07/31 05:55:44;;;;;;;5.25;2.08;;;18.50;99.90;;;;;;5072891;28;20045;-61
2022/07/31 05:58:11;;;;;;;1.75;1.52;;;18.50;99.90;;;;;;5073014;28;20460;-61
2022/07/31 06:00:37;;;;;;;1.85;1.60;;;18.50;99.90;;;;;;5072910;28;20149;-61
2022/07/31 06:03:04;;;;;;;2.70;1.65;;;18.50;99.90;;;;;;5071429;28;20040;-61
2022/07/31 06:05:30;;;;;;;2.05;1.65;;;18.50;99.90;;;;;;5071421;28;20079;-60
2022/07/31 06:07:56;;;;;;;3.40;1.73;;;18.60;99.90;;;;;;5072926;28;20099;-60
2022/07/31 06:10:22;;;;;;;2.53;1.52;;;18.60;99.90;;;;;;5072869;28;20040;-60
2022/07/31 06:12:48;;;;;;;2.55;1.80;;;18.60;99.90;;;;;;5071455;28;20480;-60
2022/07/31 06:15:14;;;;;;;2.53;1.67;;;18.70;99.90;;;;;;5072337;28;20059;-60
2022/07/31 06:17:41;;;;;;;2.90;1.73;;;18.70;99.90;;;;;;5072820;28;20515;-61
2022/07/31 06:20:08;;;;;;;1.83;1.40;;;18.80;99.90;;;;;;5072785;28;20469;-61
2022/07/31 06:22:34;;;;;;;3.75;1.67;;;18.80;99.90;;;;;;5072488;28;20040;-60
2022/07/31 06:25:00;;;;;;;2.92;1.70;;;18.80;99.90;;;;;;5072737;28;20040;-61
2022/07/31 06:27:26;;;;;;;2.25;1.60;;;18.90;99.90;;;;;;5072415;28;20044;-61
2022/07/31 06:29:51;;;;;;;2.72;1.90;;;18.90;99.90;;;;;;5071122;28;20076;-61
2022/07/31 06:32:19;;;;;;;2.10;1.50;;;18.90;99.90;;;;;;5074322;28;20056;-61
2022/07/31 06:34:44;;;;;;;2.65;2.13;;;18.90;99.90;;;;;;5075159;28;20123;-61
2022/07/31 06:37:10;;;;;;;2.47;1.83;;;18.90;99.90;;;;;;5075394;28;20140;-61
2022/07/31 06:39:36;;;;;;;2.40;1.77;;;18.90;99.90;;;;;;5076450;28;20035;-61
2022/07/31 06:42:01;;;;;;;2.10;1.65;;;19.00;99.90;;;;;;5076524;28;20541;-61
2022/07/31 06:44:27;;;;;;;3.38;1.90;;;19.00;99.90;;;;;;5074748;28;20044;-60
2022/07/31 06:46:53;;;;;;;2.25;1.50;;;19.00;99.90;;;;;;5075923;28;20048;-61
2022/07/31 06:49:19;;;;;;;2.15;1.40;;;19.10;99.90;;;;;;5074753;28;20052;-61
2022/07/31 06:51:44;;;;;;;6.22;1.65;;;19.20;99.90;;;;;;5075877;28;20060;-61
2022/07/31 06:54:10;;;;;;;2.78;1.60;;;19.20;99.90;;;;;;5075811;28;20044;-61
2022/07/31 06:56:37;;;;;;;2.90;1.83;;;19.30;99.90;;;;;;5076102;28;20071;-62
2022/07/31 06:59:04;;;;;;;2.67;1.90;;;19.30;99.90;;;;;;5076127;28;20033;-61
2022/07/31 07:01:30;;;;;;;4.10;1.70;;;19.30;99.90;;;;;;5076005;28;20041;-61
2022/07/31 07:03:56;;;;;;;3.30;1.90;;;19.50;99.90;;;;;;5075807;28;20090;-61
2022/07/31 07:06:22;;;;;;;2.63;1.80;;;19.30;99.90;;;;;;5075921;28;20044;-61
2022/07/31 07:08:49;;;;;;;2.53;1.80;;;19.50;99.90;;;;;;5075962;28;20044;-61
2022/07/31 07:11:14;;;;;;;3.10;2.00;;;19.40;99.90;;;;;;5075672;28;20452;-61
2022/07/31 07:13:40;;;;;;;3.75;1.75;;;19.30;99.90;;;;;;5075137;28;20049;-61
2022/07/31 07:16:06;;;;;;;1.95;1.60;;;19.40;99.90;;;;;;5073924;28;20044;-61
2022/07/31 07:18:32;;;;;;;3.10;1.83;;;19.40;99.90;;;;;;5075184;28;20036;-61
2022/07/31 07:20:58;;;;;;;4.22;2.13;;;19.40;99.90;;;;;;5075254;28;20032;-61
2022/07/31 07:23:23;;;;;;;6.60;1.70;;;19.50;99.90;;;;;;5075409;28;20064;-61
2022/07/31 07:25:49;;;;;;;2.40;1.55;;;19.50;99.90;;;;;;5075055;28;20083;-61
2022/07/31 07:28:16;;;;;;;2.13;1.65;;;19.50;99.90;;;;;;5074022;28;20052;-61
2022/07/31 07:30:42;;;;;;;4.03;2.17;;;19.50;99.90;;;;;;5075235;28;20044;-61
2022/07/31 07:33:08;;;;;;;3.47;2.03;;;19.60;99.90;;;;;;5075293;28;20098;-60
2022/07/31 07:35:33;;;;;;;2.25;1.70;;;19.60;99.90;;;;;;5073888;28;20426;-61
2022/07/31 07:37:59;;;;;;;3.08;2.00;;;19.60;99.90;;;;;;5075180;28;20531;-61
2022/07/31 07:40:26;;;;;;;3.15;2.25;;;19.60;99.90;;;;;;5075115;28;20032;-61
2022/07/31 07:42:52;;;;;;;3.15;2.05;;;19.70;99.90;;;;;;5075052;28;20532;-61
2022/07/31 07:45:18;;;;;;;4.47;2.00;;;19.70;99.90;;;;;;5075081;28;20048;-61
2022/07/31 07:47:44;;;;;;;5.15;2.20;;;19.70;99.90;;;;;;5074685;28;20506;-61
2022/07/31 07:50:11;;;;;;;2.85;1.85;;;19.80;99.90;;;;;;5073692;28;20044;-62
2022/07/31 07:52:37;;;;;;;3.67;2.30;;;19.90;99.90;;;;;;5074923;28;20365;-61
2022/07/31 07:55:05;;;;;;;3.10;1.90;;;20.00;99.90;;;;;;5074981;28;20466;-61
2022/07/31 07:57:31;;;;;;;4.05;2.30;;;20.10;99.90;;;;;;5073700;28;20048;-62
2022/07/31 08:00:03;;;;;;;4.22;2.20;;;20.10;99.90;;;;;;5074686;28;20036;-61
2022/07/31 08:02:29;;;;;;;2.80;2.10;;;20.20;99.90;;;;;;5056999;28;20051;-61
2022/07/31 08:04:54;;;;;;;4.40;2.60;;;20.20;99.90;;;;;;5074871;28;20032;-61
2022/07/31 08:07:35;;;;;;;3.40;2.58;;;20.30;99.90;;;;;;5074753;28;20086;-61
2022/07/31 08:10:01;;;;;;;3.20;2.50;;;20.40;99.90;;;;;;5074827;28;20044;-61
2022/07/31 08:12:27;;;;;;;4.88;2.25;;;20.60;99.90;;;;;;5074306;28;20075;-61
2022/07/31 08:14:53;;;;;;;4.97;2.25;;;20.80;99.90;;;;;;5073878;28;20048;-61
2022/07/31 08:17:19;;;;;;;4.40;2.17;;;21.00;99.90;;;;;;5074029;28;20055;-61
2022/07/31 08:19:45;;;;;;;4.32;2.30;;;21.10;99.90;;;;;;5074041;28;20072;-61
2022/07/31 08:22:11;;;;;;;3.25;1.88;;;21.30;99.90;;;;;;5074287;28;20052;-61
2022/07/31 08:24:37;;;;;;;2.35;1.70;;;21.40;99.90;;;;;;5074207;28;20468;-61
2022/07/31 08:29:48;;;;;;;2.60;1.85;;;21.60;99.90;;;;;;5074160;28;20075;-61
2022/07/31 08:32:13;;;;;;;4.85;3.00;;;21.80;99.90;;;;;;5073972;28;20068;-61
2022/07/31 08:34:39;;;;;;;3.42;2.15;;;21.80;99.90;;;;;;5073905;28;20133;-61
2022/07/31 08:37:05;;;;;;;3.53;2.17;;;21.90;99.90;;;;;;5073989;28;20107;-61
2022/07/31 08:39:32;;;;;;;5.65;2.28;;;22.00;99.90;;;;;;5073879;28;20384;-61
2022/07/31 08:41:58;;;;;;;3.60;2.47;;;21.90;99.90;;;;;;5073764;28;20036;-62
2022/07/31 08:44:23;;;;;;;2.42;1.98;;;21.80;99.90;;;;;;5073807;28;20404;-61
2022/07/31 08:46:55;;;;;;;4.55;2.40;;;21.90;99.90;;;;;;5073580;28;20044;-61
2022/07/31 08:49:24;;;;;;;4.07;2.72;;;21.70;99.90;;;;;;5073742;28;20404;-61
2022/07/31 08:51:50;;;;;;;4.97;2.70;;;21.70;99.90;;;;;;5073772;28;20052;-61
2022/07/31 08:54:17;;;;;;;5.13;2.65;;;21.40;99.90;;;;;;5071665;28;20165;-61
2022/07/31 08:56:45;;;;;;;4.22;2.72;;;21.50;99.90;;;;;;5073372;28;20387;-61
2022/07/31 08:59:11;;;;;;;5.65;3.47;;;21.50;99.90;;;;;;5073433;28;20380;-60
2022/07/31 09:01:37;;;;;;;4.45;2.80;;;21.50;99.90;;;;;;5071893;28;20468;-61
2022/07/31 09:04:03;;;;;;;5.28;2.55;;;21.40;99.90;;;;;;5073375;28;20041;-61
2022/07/31 09:06:29;;;;;;;5.00;2.83;;;22.20;99.90;;;;;;5073325;28;20037;-61
2022/07/31 09:08:55;;;;;;;4.90;3.08;;;21.20;99.90;;;;;;5073246;28;20078;-62
2022/07/31 09:11:22;;;;;;;4.07;2.75;;;21.20;99.90;;;;;;5071684;28;20040;-61
2022/07/31 09:13:58;;;;;;;4.38;2.53;;;21.20;99.90;;;;;;5071792;28;20071;-61
2022/07/31 09:16:25;;;;;;;4.70;3.00;;;21.00;99.90;;;;;;5071566;28;20048;-61
2022/07/31 09:19:04;;;;;;;5.05;3.28;;;21.00;99.90;;;;;;5072744;28;20053;-61
2022/07/31 09:21:43;;;;;;;5.53;3.35;;;20.90;99.90;;;;;;5072861;28;20048;-61
2022/07/31 09:24:11;;;;;;;4.60;2.85;;;20.90;99.90;;;;;;5073150;28;20127;-61
2022/07/31 09:26:41;;;;;;;4.32;3.08;;;20.90;99.90;;;;;;5072955;28;20075;-61
2022/07/31 09:29:12;;;;;;;5.03;2.85;;;20.80;99.90;;;;;;5073006;28;20044;-61
2022/07/31 09:31:38;;;;;;;7.55;3.63;;;20.70;99.90;;;;;;5073046;28;20060;-61
2022/07/31 09:34:04;;;;;;;4.75;3.40;;;20.90;99.90;;;;;;5072663;28;20068;-60
2022/07/31 09:36:31;;;;;;;4.43;3.20;;;20.50;99.90;;;;;;5073055;28;20132;-60
2022/07/31 09:38:57;;;;;;;6.60;3.83;;;20.70;99.90;;;;;;5072787;28;20043;-61
2022/07/31 09:41:24;;;;;;;5.22;2.90;;;20.60;99.90;;;;;;5072953;28;20036;-60
2022/07/31 09:44:01;;;;;;;4.78;3.22;;;20.70;99.90;;;;;;5072956;28;20048;-60
2022/07/31 09:46:47;;;;;;;4.65;2.90;;;20.70;99.90;;;;;;5072650;28;20048;-60
2022/07/31 09:49:13;;;;;;;5.10;3.10;;;20.50;99.90;;;;;;5072882;28;20037;-61
2022/07/31 09:51:44;;;;;;;5.22;3.70;;;20.70;99.90;;;;;;5072528;28;20044;-61
2022/07/31 09:54:20;;;;;;;;;;;20.60;99.90;;;;;;5072854;28;20211;-60
2022/07/31 09:56:48;;;;;;;5.50;3.42;;;20.50;99.90;;;;;;5072846;28;19922;-60
2022/07/31 09:59:14;;;;;;;5.95;3.53;;;20.40;99.90;;;;;;5072772;28;20072;-61
2022/07/31 10:01:41;;;;;;;5.88;3.67;;;20.40;99.90;;;;;;5071155;28;20538;-61
2022/07/31 10:04:08;;;;;;;5.28;3.72;;;20.50;99.90;;;;;;5072769;28;20127;-61
2022/07/31 10:06:35;;;;;;;6.28;3.67;;;20.40;99.90;;;;;;5074687;28;20050;-60
2022/07/31 10:09:03;;;;;;;11.13;4.25;;;20.30;99.90;;;;;;5076697;28;20052;-61
2022/07/31 10:11:30;;;;;;;4.55;3.65;;;20.50;99.90;;;;;;5077006;28;20048;-61
2022/07/31 10:14:00;;;;;;;4.75;3.78;;;20.20;99.90;;;;;;5075254;28;20427;-61
2022/07/31 10:16:28;;;;;;;8.77;4.05;;;20.50;99.90;;;;;;5076568;28;20056;-61
2022/07/31 10:18:59;;;;;;;5.55;3.80;;;20.30;99.90;;;;;;5076930;28;20040;-61
2022/07/31 10:21:34;;;;;;;5.20;3.67;;;20.10;99.90;;;;;;5076781;28;20075;-61
2022/07/31 10:24:03;;;;;;;7.20;3.70;;;20.10;99.90;;;;;;5076848;28;20089;-62
2022/07/31 10:26:29;;;;;;;6.47;4.07;;;20.00;99.90;;;;;;5076352;28;20052;-61
2022/07/31 10:28:56;;;;;;;6.90;4.35;;;20.10;99.90;;;;;;5076400;28;20047;-61
2022/07/31 10:31:22;;;;;;;7.78;4.13;;;20.20;99.90;;;;;;5076615;28;20147;-61
2022/07/31 10:33:48;;;;;;;6.90;3.85;;;20.20;99.90;;;;;;5076315;28;20080;-62
2022/07/31 10:36:19;;;;;;;5.15;3.58;;;20.30;99.90;;;;;;5076523;28;20138;-62
2022/07/31 10:39:18;;;;;;;6.32;4.53;;;20.50;99.90;;;;;;5076530;28;20373;-61
2022/07/31 10:42:10;;;;;;;5.95;3.70;;;20.40;99.90;;;;;;5076089;28;20037;-62
2022/07/31 10:44:46;;;;;;;5.55;4.20;;;20.40;99.90;;;;;;5075123;28;20056;-61
2022/07/31 10:47:13;;;;;;;6.93;3.78;;;20.30;99.90;;;;;;5076319;28;20041;-61
2022/07/31 10:49:43;;;;;;;6.03;3.78;;;20.40;99.90;;;;;;5076243;28;20412;-61
2022/07/31 10:52:09;;;;;;;6.70;3.57;;;20.30;99.90;;;;;;5075985;28;20044;-61
2022/07/31 10:54:43;;;;;;;4.65;3.75;;;20.70;99.90;;;;;;5076107;28;20088;-61
2022/07/31 10:57:21;;;;;;;5.68;3.78;;;20.40;99.90;;;;;;5074554;28;20073;-62
2022/07/31 10:59:47;;;;;;;4.43;3.53;;;20.60;99.90;;;;;;5076047;28;20048;-61
2022/07/31 11:02:13;;;;;;;4.65;3.65;;;20.60;99.90;;;;;;5076009;28;20115;-61
2022/07/31 11:04:39;;;;;;;5.57;3.70;;;20.50;99.90;;;;;;5075675;28;20149;-62
2022/07/31 11:07:14;;;;;;;8.93;3.88;;;20.80;99.90;;;;;;5074696;28;20037;-61
2022/07/31 11:09:40;;;;;;;6.82;4.63;;;20.60;99.90;;;;;;5075884;28;20123;-61
2022/07/31 11:12:26;;;;;;;4.95;3.97;;;20.70;99.90;;;;;;5075616;28;20504;-62
2022/07/31 11:14:52;;;;;;;6.88;4.70;;;20.30;99.90;;;;;;5075235;28;20114;-61
2022/07/31 11:17:17;;;;;;;7.53;4.78;;;20.50;99.90;;;;;;5074981;28;20048;-61
2022/07/31 11:19:43;;;;;;;6.78;4.25;;;20.50;99.90;;;;;;5075488;28;20128;-61
2022/07/31 11:22:14;;;;;;;8.63;4.90;;;20.20;99.90;;;;;;5074457;28;20048;-61
2022/07/31 11:24:40;;;;;;;7.28;4.20;;;20.40;99.90;;;;;;5074333;28;20044;-61
2022/07/31 11:27:06;;;;;;;7.60;4.25;;;20.20;99.90;;;;;;5075615;28;20119;-61
2022/07/31 11:29:37;;;;;;;7.03;4.45;;;20.20;99.90;;;;;;5075554;28;20531;-61
2022/07/31 11:32:05;;;;;;;8.23;4.68;;;20.10;99.90;;;;;;5075240;28;20045;-61
2022/07/31 11:34:54;;;;;;;6.20;4.70;;;20.40;99.90;;;;;;5075368;28;20055;-61
2022/07/31 11:37:29;;;;;;;5.70;4.30;;;20.10;99.90;;;;;;5075381;28;20480;-63
2022/07/31 11:39:56;;;;;;;8.07;4.78;;;20.40;99.90;;;;;;5075416;28;20495;-61
2022/07/31 11:42:24;;;;;;;6.40;4.90;;;20.30;99.90;;;;;;5075337;28;20108;-61
2022/07/31 11:44:50;;;;;;;7.35;4.63;;;20.40;99.90;;;;;;5073777;28;20059;-61
2022/07/31 11:47:16;;;;;;;6.55;4.53;;;20.10;99.90;;;;;;5075272;28;20044;-62
2022/07/31 11:49:42;;;;;;;8.43;5.30;;;20.00;99.90;;;;;;5075211;28;20396;-61
2022/07/31 11:52:11;;;;;;;8.73;5.47;;;20.20;99.90;;;;;;5073895;28;20124;-61
2022/07/31 11:54:37;;;;;;;8.48;5.10;;;20.20;99.90;;;;;;5074628;28;20041;-61
2022/07/31 11:57:04;;;;;;;8.98;5.10;;;20.00;99.90;;;;;;5073431;28;20040;-62
2022/07/31 11:59:38;;;;;;;9.02;5.18;;;19.80;99.90;;;;;;5074905;28;20163;-62
2022/07/31 12:02:13;;;;;;;7.43;5.35;;;19.90;99.90;;;;;;5074885;28;20036;-62
2022/07/31 12:04:39;;;;;;;8.02;5.10;;;20.10;99.90;;;;;;5074546;28;20040;-62
2022/07/31 12:07:07;;;;;;;9.73;5.30;;;19.90;99.90;;;;;;5074845;28;20502;-62
2022/07/31 12:09:34;;;;;;;10.40;5.50;;;19.80;99.90;;;;;;5074720;28;20036;-62
2022/07/31 12:12:02;;;;;;;10.40;6.07;;;19.80;99.90;;;;;;5073413;28;20052;-62
2022/07/31 12:14:38;;;;;;;9.35;5.85;;;19.80;99.90;;;;;;5073243;28;20444;-62
2022/07/31 12:17:06;;;;;;;8.43;5.68;;;19.40;99.90;;;;;;5074713;28;20041;-61
2022/07/31 12:19:36;;;;;;;11.02;5.82;;;19.60;99.90;;;;;;5074586;28;20040;-62
2022/07/31 12:22:15;;;;;;;9.32;5.60;;;19.60;99.90;;;;;;5074604;28;20380;-61
2022/07/31 12:24:42;;;;;;;11.02;5.78;;;19.40;99.90;;;;;;5074513;28;20433;-61
2022/07/31 12:27:08;;;;;;;11.10;6.45;;;19.20;99.90;;;;;;5074446;28;20041;-61
2022/07/31 12:29:37;;;;;;;12.38;6.22;;;19.30;99.90;;;;;;5073563;28;20033;-61
2022/07/31 12:32:07;;;;;;;11.07;6.50;;;19.10;99.90;;;;;;5074415;28;20456;-62
2022/07/31 12:34:37;;;;;;;9.60;6.22;;;19.20;99.90;;;;;;5073968;28;20033;-62
2022/07/31 12:37:07;;;;;;;10.20;6.43;;;19.00;99.90;;;;;;5074317;28;20484;-62
2022/07/31 12:39:51;;;;;;;9.20;6.53;;;19.40;99.90;;;;;;5074017;28;20442;-61
2022/07/31 12:42:28;;;;;;;10.05;7.07;;;19.10;99.90;;;;;;5073962;28;20048;-62
2022/07/31 12:44:56;;;;;;;10.18;6.80;;;19.00;99.90;;;;;;5074154;28;20041;-62
2022/07/31 12:47:26;;;;;;;11.38;6.95;;;19.30;99.90;;;;;;5074145;28;20093;-62
2022/07/31 12:49:52;;;;;;;;;;;19.00;99.90;;;;;;5074441;28;20115;-61
2022/07/31 12:52:19;;;;;;;11.40;7.15;;;19.00;99.90;;;;;;5074007;28;20373;-61
2022/07/31 12:54:45;;;;;;;10.88;7.18;;;19.30;99.90;;;;;;5072643;28;20043;-61
2022/07/31 12:57:11;;;;;;;12.90;8.23;;;19.30;99.90;;;;;;5072591;28;20044;-62